• Join FlightAware (Why Join?)
  • Login
  • US Flag 
08:19AM EST


 

Airport Tracker/Info


-or-


 

Live Flight TrackerFlight Track Log ✈ SWA757 ✈ 18-Apr-2013 ✈ KSJC - KSAN

Flight Track Log - Related Links

Times and Time Zones

All times are in EDT time to prevent confusion due to time zone crossing. See the SWA757 flight status page for this flight to view local times or setup timezone preferences in your user account.

Time Position Orientation Groundspeed Altitude Reporting Facility
EDT Latitude Longitude Course Direction KTS MPH feet Rate Location/Type
01:21AM 37.3833 -121.9500 138° Southeast 152 175 1,400  Level Northern Cal TRACON
01:22AM 37.4333 -121.9667 345° North 221 254 4,600 1,800 Climbing Northern Cal TRACON
01:23AM 37.4333 -121.9167 90° East 229 264 5,000 420 Climbing Northern Cal TRACON
01:23AM 37.4000 -121.8667 130° Southeast 243 280 5,400 1,680 Climbing Northern Cal TRACON
01:24AM 37.3611 -121.8272 141° Southeast 238 274 7,900 3,000 Climbing Oakland Center
01:25AM 37.3017 -121.7608 138° Southeast 277 319 10,900 2,700 Climbing Oakland Center
01:26AM 36.9745 -121.5023 138° Southeast  Level Estimated
01:26AM 37.2247 -121.6750 138° Southeast 367 422 13,400  Level Oakland Center
01:27AM 37.1403 -121.5847 140° Southeast 397 457 16,700 3,060 Climbing Oakland Center
01:28AM 37.0358 -121.4661 138° Southeast 435 501 19,700 2,820 Climbing Oakland Center
01:29AM 36.9417 -121.3631 139° Southeast 449 517 22,500 2,520 Climbing Oakland Center
01:30AM 36.8428 -121.2547 139° Southeast 470 541 24,900 2,160 Climbing Oakland Center
01:31AM 36.7492 -121.1547 139° Southeast 481 554 26,900 2,160 Climbing Oakland Center
01:32AM 36.6439 -121.0431 140° Southeast 493 567 29,300 2,340 Climbing Oakland Center
01:33AM 36.5422 -120.9292 138° Southeast 492 566 31,700 2,160 Climbing Oakland Center
01:34AM 36.4389 -120.8183 139° Southeast 489 563 33,700 1,860 Climbing Oakland Center
01:35AM 36.3361 -120.7069 139° Southeast 491 565 35,600 1,680 Climbing Oakland Center
01:36AM 36.2328 -120.5967 139° Southeast 490 564 37,200 1,620 Climbing Oakland Center
01:37AM 36.1081 -120.4631 139° Southeast 494 568 38,900 840 Climbing Oakland Center
01:38AM 36.0056 -120.3550 140° Southeast 477 549 39,000  Climbing Oakland Center
01:39AM 35.9028 -120.2464 139° Southeast 478 550 39,000  Level Oakland Center
01:40AM 35.7989 -120.1378 140° Southeast 485 558 39,000  Level Oakland Center
01:41AM 35.6944 -120.0292 140° Southeast 485 558 39,000  Level Oakland Center
01:42AM 35.5878 -119.9258 142° Southeast 485 558 39,000  Level Oakland Center
01:43AM 35.4739 -119.8294 145° Southeast 490 564 39,000  Level Oakland Center
01:44AM 35.3611 -119.7333 145° Southeast 490 564 39,000  Level Oakland Center
01:45AM 35.2478 -119.6347 145° Southeast 495 570 39,000  Level Oakland Center
01:47AM 35.1336 -119.5375 145° Southeast 497 572 39,000  Level Oakland Center
01:48AM 35.0206 -119.4397 145° Southeast 497 572 39,000  Level Oakland Center
01:49AM 34.9072 -119.3431 145° Southeast 496 571 39,000  Level Oakland Center
01:50AM 34.7933 -119.2472 145° Southeast 496 571 39,000  Level Oakland Center
01:51AM 34.6808 -119.1503 145° Southeast 496 571 39,000  Level Oakland Center
01:52AM 34.5489 -119.0425 146° Southeast 493 567 39,000  Level Los Angeles Center
01:53AM 34.4344 -118.9489 146° Southeast 495 570 39,000  Level Los Angeles Center
01:54AM 34.3225 -118.8497 144° Southeast 499 574 39,000  Level Los Angeles Center
01:55AM 34.2203 -118.7375 138° Southeast 498 573 39,000 -420 Level Los Angeles Center
01:56AM 34.1161 -118.6269 139° Southeast 498 573 38,200 -1,440 Descending Los Angeles Center
01:57AM 34.0119 -118.5164 139° Southeast 499 574 36,100 -2,100 Descending Los Angeles Center
01:58AM 33.9142 -118.4092 138° Southeast 479 551 34,000 -2,400 Descending Los Angeles Center
01:59AM 33.8139 -118.2808 133° Southeast 461 531 31,200 -2,400 Descending Los Angeles Center
02:00AM 33.7372 -118.1800 132° Southeast 455 524 29,100 -2,160 Descending Los Angeles Center
02:01AM 33.6544 -118.0744 133° Southeast 435 501 26,900 -2,160 Descending Los Angeles Center
02:02AM 33.5717 -117.9706 134° Southeast 431 496 24,800 -1,440 Descending Los Angeles Center
02:03AM 33.4914 -117.8700 134° Southeast 422 486 24,000 -540 Descending Los Angeles Center
02:04AM 33.4117 -117.7692 133° Southeast 417 480 23,800 -1,380 Descending Los Angeles Center
02:05AM 33.3322 -117.6692 134° Southeast 415 478 21,200 -2,820 Descending Los Angeles Center
02:06AM 33.2403 -117.5578 135° Southeast 394 453 18,100 -2,520 Descending Los Angeles Center
02:07AM 33.1667 -117.4833 140° Southeast 383 441 16,300 -2,100 Descending Southern California TRACON
02:08AM 33.1167 -117.4000 126° Southeast 361 415 14,100 -2,040 Descending Southern California TRACON
02:09AM 33.0500 -117.3167 134° Southeast 352 405 12,200 -1,980 Descending Southern California TRACON
02:10AM 32.9500 -117.3333 188° South 335 386 10,200 -1,140 Descending Southern California TRACON
02:11AM 32.8667 -117.3500 190° South 313 360 10,000 -120 Descending Southern California TRACON
02:12AM 32.8167 -117.2833 132° Southeast 302 348 10,000 -660 Level Southern California TRACON
02:13AM 32.7833 -117.2000 115° Southeast 294 338 8,700 -1,320 Descending Southern California TRACON
02:14AM 32.7500 -117.1167 115° Southeast 264 304 7,400 -1,200 Descending Southern California TRACON
02:15AM 32.7333 -117.0333 103° East 230 265 6,300 -1,260 Descending Southern California TRACON
02:16AM 32.7167 -116.9667 107° East 228 262 5,100 -1,020 Descending Southern California TRACON
02:17AM 32.6667 -116.9500 164° South 217 250 4,300 -900 Descending Southern California TRACON
02:18AM 32.6833 -117.0167 287° West 179 206 3,300 -1,140 Descending Southern California TRACON
02:19AM 32.7000 -117.0667 292° West 176 203 2,200 -1,080 Descending Southern California TRACON
02:20AM 32.7167 -117.1167 292° West 154 177 1,300 -960 Descending Southern California TRACON
02:20AM 32.7181 -117.1272 279° West 158 182 900 -840 Descending Los Angeles Center
02:21AM 32.7278 -117.1650 287° West 121 139 200 -720 Descending Los Angeles Center
02:23AM 32.7333 -117.1833 270° West  Level FlightAware Approximate
02:30AM 32.7336 -117.1897 270° West  Level Estimated